createdAt,value
2019-03-01T00:00:31.649Z,963.93
2019-03-01T00:01:31.593Z,963.92
2019-03-01T00:02:31.572Z,963.90
2019-03-01T00:03:31.491Z,963.90
2019-03-01T00:04:31.468Z,963.85
2019-03-01T00:05:31.383Z,963.90
2019-03-01T00:06:31.330Z,963.91
2019-03-01T00:07:31.281Z,963.86
2019-03-01T00:08:31.226Z,963.90
2019-03-01T00:09:31.210Z,963.86
2019-03-01T00:10:31.120Z,963.86
2019-03-01T00:11:31.064Z,963.82
2019-03-01T00:12:31.016Z,963.82
2019-03-01T00:13:30.959Z,963.78
2019-03-01T00:14:30.939Z,963.83
2019-03-01T00:15:30.856Z,963.76
2019-03-01T00:16:30.806Z,963.72
2019-03-01T00:17:30.757Z,963.71
2019-03-01T00:18:30.698Z,963.73
2019-03-01T00:19:30.681Z,963.70
2019-03-01T00:20:30.594Z,963.67
2019-03-01T00:21:30.537Z,963.65
2019-03-01T00:22:30.520Z,963.70
2019-03-01T00:23:30.433Z,963.69
2019-03-01T00:24:30.382Z,963.59
2019-03-01T00:25:30.327Z,963.62
2019-03-01T00:26:30.309Z,963.61
2019-03-01T00:27:30.225Z,963.60
2019-03-01T00:28:30.201Z,963.59
2019-03-01T00:29:30.147Z,963.55
2019-03-01T00:30:30.066Z,963.52
2019-03-01T00:31:30.008Z,963.51
2019-03-01T00:32:29.983Z,963.46
2019-03-01T00:33:29.935Z,963.43
2019-03-01T00:34:29.853Z,963.50
2019-03-01T00:35:29.798Z,963.41
2019-03-01T00:36:29.745Z,963.46
2019-03-01T00:37:29.693Z,963.41
2019-03-01T00:38:29.678Z,963.37
2019-03-01T00:39:29.589Z,963.36
2019-03-01T00:40:29.531Z,963.34
2019-03-01T00:41:29.477Z,963.33
2019-03-01T00:42:29.426Z,963.33
2019-03-01T00:43:29.415Z,963.34
2019-03-01T00:44:29.320Z,963.29
2019-03-01T00:45:29.266Z,963.28
2019-03-01T00:46:29.213Z,963.23
2019-03-01T00:47:29.159Z,963.25
2019-03-01T00:48:29.141Z,963.26
2019-03-01T00:49:29.086Z,963.18
2019-03-01T00:50:29.001Z,963.20
2019-03-01T00:51:28.958Z,963.16
2019-03-01T00:52:28.926Z,963.18
2019-03-01T00:53:28.840Z,963.17
2019-03-01T00:54:28.787Z,963.16
2019-03-01T00:55:28.734Z,963.19
2019-03-01T00:56:28.683Z,963.21
2019-03-01T00:57:28.661Z,963.22
2019-03-01T00:58:28.577Z,963.21
2019-03-01T00:59:28.522Z,963.17
2019-03-01T01:00:28.474Z,963.20
2019-03-01T01:01:28.415Z,963.17
2019-03-01T01:02:28.401Z,963.15
2019-03-01T01:03:28.308Z,963.16
2019-03-01T01:04:28.256Z,963.12
2019-03-01T01:05:28.203Z,963.13
2019-03-01T01:06:28.148Z,963.18
2019-03-01T01:07:28.136Z,963.09
2019-03-01T01:08:28.043Z,963.10
2019-03-01T01:09:27.991Z,963.05
2019-03-01T01:10:27.936Z,963.03
2019-03-01T01:11:27.899Z,963.00
2019-03-01T01:12:27.862Z,963.12
2019-03-01T01:13:27.781Z,963.03
2019-03-01T01:14:27.722Z,962.99
2019-03-01T01:15:27.688Z,963.03
2019-03-01T01:16:27.619Z,963.00
2019-03-01T01:17:27.603Z,963.02
2019-03-01T01:18:27.551Z,962.99
2019-03-01T01:19:27.455Z,962.95
2019-03-01T01:20:27.403Z,962.97
2019-03-01T01:21:27.353Z,962.94
2019-03-01T01:22:27.294Z,962.93
2019-03-01T01:23:27.283Z,962.87
2019-03-01T01:24:27.190Z,962.87
2019-03-01T01:25:27.134Z,962.84
2019-03-01T01:26:27.084Z,962.83
2019-03-01T01:27:27.031Z,962.81
2019-03-01T01:28:27.008Z,962.82
2019-03-01T01:29:26.928Z,962.82
2019-03-01T01:30:26.909Z,962.77
2019-03-01T01:31:26.827Z,962.71
2019-03-01T01:32:26.761Z,962.68
2019-03-01T01:33:26.713Z,962.64
2019-03-01T01:34:26.658Z,962.68
2019-03-01T01:35:26.626Z,962.59
2019-03-01T01:36:26.548Z,962.56
2019-03-01T01:37:26.527Z,962.58
2019-03-01T01:38:26.445Z,962.49
2019-03-01T01:39:26.388Z,962.52
2019-03-01T01:40:26.333Z,962.52
2019-03-01T01:41:26.326Z,962.50
2019-03-01T01:42:26.229Z,962.51
2019-03-01T01:43:26.175Z,962.49
2019-03-01T01:44:26.123Z,962.52
2019-03-01T01:45:26.068Z,962.53
2019-03-01T01:46:26.048Z,962.50
2019-03-01T01:47:25.961Z,962.47
2019-03-01T01:48:25.915Z,962.47
2019-03-01T01:49:25.862Z,962.50
2019-03-01T01:50:25.839Z,962.44
2019-03-01T01:51:25.793Z,962.53
2019-03-01T01:52:25.695Z,962.41
2019-03-01T01:53:25.638Z,962.44
2019-03-01T01:54:25.590Z,962.42
2019-03-01T01:55:25.560Z,962.43
2019-03-01T01:56:25.481Z,962.43
2019-03-01T01:57:25.461Z,962.43
2019-03-01T01:58:25.375Z,962.39
2019-03-01T01:59:25.335Z,962.41
2019-03-01T02:00:25.265Z,962.41
2019-03-01T02:01:25.213Z,962.38
2019-03-01T02:02:25.193Z,962.40
2019-03-01T02:03:25.105Z,962.40
2019-03-01T02:04:25.112Z,962.37
2019-03-01T02:05:25.001Z,962.37
2019-03-01T02:06:24.948Z,962.41
2019-03-01T02:07:24.892Z,962.43
2019-03-01T02:08:24.842Z,962.50
2019-03-01T02:09:24.827Z,962.48
2019-03-01T02:10:24.740Z,962.50
2019-03-01T02:11:24.679Z,962.37
2019-03-01T02:12:24.629Z,962.35
2019-03-01T02:13:24.577Z,962.41
2019-03-01T02:14:24.552Z,962.36
2019-03-01T02:15:24.469Z,962.34
2019-03-01T02:16:24.416Z,962.26
2019-03-01T02:17:24.383Z,962.35
2019-03-01T02:18:24.308Z,962.31
2019-03-01T02:19:24.252Z,962.33
2019-03-01T02:20:24.228Z,962.36
2019-03-01T02:21:24.145Z,962.29
2019-03-01T02:22:24.095Z,962.38
2019-03-01T02:23:24.037Z,962.34
2019-03-01T02:24:24.019Z,962.28
2019-03-01T02:25:23.931Z,962.28
2019-03-01T02:26:23.879Z,962.25
2019-03-01T02:27:23.824Z,962.29
2019-03-01T02:28:23.807Z,962.25
2019-03-01T02:29:23.716Z,962.24
2019-03-01T02:30:23.710Z,962.28
2019-03-01T02:31:23.646Z,962.26
2019-03-01T02:32:23.554Z,962.25
2019-03-01T02:33:23.502Z,962.23
2019-03-01T02:34:23.450Z,962.25
2019-03-01T02:35:23.398Z,962.27
2019-03-01T02:36:23.382Z,962.24
2019-03-01T02:37:23.290Z,962.26
2019-03-01T02:38:23.235Z,962.25
2019-03-01T02:39:23.190Z,962.22
2019-03-01T02:40:23.130Z,962.21
2019-03-01T02:41:23.115Z,962.20
2019-03-01T02:42:23.023Z,962.17
2019-03-01T02:43:22.967Z,962.17
2019-03-01T02:44:22.917Z,962.16
2019-03-01T02:45:22.892Z,962.12
2019-03-01T02:46:22.809Z,962.10
2019-03-01T02:47:22.755Z,962.11
2019-03-01T02:48:22.706Z,962.09
2019-03-01T02:49:22.645Z,962.13
2019-03-01T02:50:22.624Z,962.10
2019-03-01T02:51:22.540Z,962.10
2019-03-01T02:52:22.544Z,962.12
2019-03-01T02:53:22.438Z,962.12
2019-03-01T02:54:22.398Z,962.09
2019-03-01T02:55:22.353Z,962.07
2019-03-01T02:56:22.275Z,962.06
2019-03-01T02:57:22.219Z,962.05
2019-03-01T02:58:22.192Z,962.05
2019-03-01T02:59:22.146Z,962.03
2019-03-01T03:00:22.125Z,962.09
2019-03-01T03:01:22.008Z,962.03
2019-03-01T03:02:21.953Z,962.03
2019-03-01T03:03:21.936Z,962.00
2019-03-01T03:04:21.843Z,961.99
2019-03-01T03:05:21.794Z,961.98
2019-03-01T03:06:21.743Z,961.98
2019-03-01T03:07:21.717Z,961.97
2019-03-01T03:08:21.635Z,962.01
2019-03-01T03:09:21.580Z,962.05
2019-03-01T03:10:21.528Z,962.00
2019-03-01T03:11:21.471Z,961.98
2019-03-01T03:12:21.460Z,961.99
2019-03-01T03:13:21.362Z,961.98
2019-03-01T03:14:21.309Z,961.99
2019-03-01T03:15:21.256Z,961.98
2019-03-01T03:16:21.205Z,961.98
2019-03-01T03:17:21.194Z,961.98
2019-03-01T03:18:21.102Z,961.96
2019-03-01T03:19:21.045Z,961.93
2019-03-01T03:20:20.991Z,961.97
2019-03-01T03:21:20.938Z,961.97
2019-03-01T03:22:20.926Z,961.91
2019-03-01T03:23:20.835Z,961.94
2019-03-01T03:24:20.797Z,961.97
2019-03-01T03:25:20.760Z,961.97
2019-03-01T03:26:20.674Z,961.96
2019-03-01T03:27:20.615Z,961.95
2019-03-01T03:28:20.597Z,961.95
2019-03-01T03:29:20.509Z,961.95
2019-03-01T03:30:20.534Z,961.93
2019-03-01T03:31:20.403Z,961.99
2019-03-01T03:32:20.351Z,961.95
2019-03-01T03:33:20.299Z,961.88
2019-03-01T03:34:20.272Z,961.87
2019-03-01T03:35:20.226Z,961.88
2019-03-01T03:36:20.137Z,961.86
2019-03-01T03:37:20.104Z,961.88
2019-03-01T03:38:20.031Z,961.85
2019-03-01T03:39:19.975Z,961.83
2019-03-01T03:40:19.968Z,961.80
2019-03-01T03:41:19.868Z,961.78
2019-03-01T03:42:19.848Z,961.74
2019-03-01T03:43:22.562Z,961.74
2019-03-01T03:44:19.708Z,961.74
2019-03-01T03:45:19.700Z,961.72
2019-03-01T03:46:19.606Z,961.68
2019-03-01T03:47:19.547Z,961.67
2019-03-01T03:48:19.493Z,961.67
2019-03-01T03:49:19.443Z,961.66
2019-03-01T03:50:19.419Z,961.66
2019-03-01T03:51:19.333Z,961.65
2019-03-01T03:52:19.277Z,961.66
2019-03-01T03:53:19.228Z,961.66
2019-03-01T03:54:19.176Z,961.66
2019-03-01T03:55:19.159Z,961.63
2019-03-01T03:56:19.068Z,961.64
2019-03-01T03:57:19.010Z,961.67
2019-03-01T03:58:18.961Z,961.61
2019-03-01T03:59:18.904Z,961.62
2019-03-01T04:00:18.881Z,961.63
2019-03-01T04:01:18.796Z,961.62
2019-03-01T04:02:18.741Z,961.63
2019-03-01T04:03:18.725Z,961.61
2019-03-01T04:04:18.674Z,961.60
2019-03-01T04:05:18.583Z,961.61
2019-03-01T04:06:18.550Z,961.61
2019-03-01T04:07:18.474Z,961.63
2019-03-01T04:08:18.421Z,961.58
2019-03-01T04:09:18.402Z,961.60
2019-03-01T04:10:18.320Z,961.61
2019-03-01T04:11:18.264Z,961.62
2019-03-01T04:12:18.209Z,961.63
2019-03-01T04:13:18.157Z,961.64
2019-03-01T04:14:18.122Z,961.65
2019-03-01T04:15:18.047Z,961.61
2019-03-01T04:16:17.995Z,961.62
2019-03-01T04:17:17.970Z,961.58
2019-03-01T04:18:17.885Z,961.62
2019-03-01T04:19:17.835Z,961.63
2019-03-01T04:20:17.804Z,961.61
2019-03-01T04:21:17.726Z,961.65
2019-03-01T04:22:17.705Z,961.62
2019-03-01T04:23:17.616Z,961.58
2019-03-01T04:24:17.565Z,961.59
2019-03-01T04:25:17.509Z,961.56
2019-03-01T04:26:17.463Z,961.58
2019-03-01T04:27:17.439Z,961.54
2019-03-01T04:28:17.353Z,961.56
2019-03-01T04:29:17.297Z,961.58
2019-03-01T04:30:17.276Z,961.59
2019-03-01T04:31:17.209Z,961.59
2019-03-01T04:32:17.138Z,961.51
2019-03-01T04:33:17.114Z,961.50
2019-03-01T04:34:17.027Z,961.50
2019-03-01T04:35:17.015Z,961.56
2019-03-01T04:36:16.922Z,961.51
2019-03-01T04:37:16.874Z,961.47
2019-03-01T04:38:16.846Z,961.44
2019-03-01T04:39:16.761Z,961.41
2019-03-01T04:40:16.705Z,961.41
2019-03-01T04:41:16.690Z,961.41
2019-03-01T04:42:16.601Z,961.42
2019-03-01T04:43:16.545Z,961.36
2019-03-01T04:44:16.527Z,961.40
2019-03-01T04:45:16.455Z,961.40
2019-03-01T04:46:16.417Z,961.30
2019-03-01T04:47:16.330Z,961.30
2019-03-01T04:48:16.311Z,961.33
2019-03-01T04:49:16.223Z,961.30
2019-03-01T04:50:16.168Z,961.33
2019-03-01T04:51:16.119Z,961.35
2019-03-01T04:52:16.068Z,961.31
2019-03-01T04:53:16.033Z,961.32
2019-03-01T04:54:15.955Z,961.29
2019-03-01T04:55:15.902Z,961.28
2019-03-01T04:56:15.879Z,961.25
2019-03-01T04:57:15.796Z,961.28
2019-03-01T04:58:15.740Z,961.27
2019-03-01T04:59:15.686Z,961.28
2019-03-01T05:00:15.663Z,961.22
2019-03-01T05:01:15.611Z,961.24
2019-03-01T05:02:15.528Z,961.19
2019-03-01T05:03:15.471Z,961.22
2019-03-01T05:04:15.419Z,961.19
2019-03-01T05:05:15.363Z,961.18
2019-03-01T05:06:15.349Z,961.20
2019-03-01T05:07:15.255Z,961.16
2019-03-01T05:08:15.199Z,961.15
2019-03-01T05:09:15.154Z,961.13
2019-03-01T05:10:15.101Z,961.13
2019-03-01T05:11:15.070Z,961.10
2019-03-01T05:12:14.992Z,961.09
2019-03-01T05:13:14.935Z,961.15
2019-03-01T05:14:14.877Z,961.10
2019-03-01T05:15:14.827Z,961.10
2019-03-01T05:16:14.795Z,961.05
2019-03-01T05:17:14.747Z,961.03
2019-03-01T05:18:14.662Z,961.08
2019-03-01T05:19:14.607Z,961.07
2019-03-01T05:20:14.556Z,961.06
2019-03-01T05:21:14.502Z,961.05
2019-03-01T05:22:14.489Z,961.07
2019-03-01T05:23:14.392Z,961.08
2019-03-01T05:24:14.341Z,961.09
2019-03-01T05:25:14.287Z,961.08
2019-03-01T05:26:14.236Z,961.09
2019-03-01T05:27:14.216Z,961.05
2019-03-01T05:28:14.127Z,961.08
2019-03-01T05:29:14.072Z,961.08
2019-03-01T05:30:14.014Z,961.05
2019-03-01T05:31:13.995Z,961.00
2019-03-01T05:32:13.910Z,961.02
2019-03-01T05:33:13.863Z,961.05
2019-03-01T05:34:13.799Z,961.05
2019-03-01T05:35:13.754Z,961.07
2019-03-01T05:36:13.722Z,961.04
2019-03-01T05:37:13.674Z,961.11
2019-03-01T05:38:21.528Z,961.05
2019-03-01T05:39:13.528Z,961.06
2019-03-01T05:40:13.509Z,961.08
2019-03-01T05:41:13.429Z,961.04
2019-03-01T05:42:13.368Z,961.02
2019-03-01T05:43:13.324Z,961.05
2019-03-01T05:44:13.262Z,961.09
2019-03-01T05:45:13.239Z,961.14
2019-03-01T05:46:13.205Z,961.10
2019-03-01T05:47:13.104Z,961.12
2019-03-01T05:48:13.044Z,961.11
2019-03-01T05:49:13.021Z,961.10
2019-03-01T05:50:12.937Z,961.04
2019-03-01T05:51:12.917Z,961.10
2019-03-01T05:52:12.831Z,961.05
2019-03-01T05:53:12.775Z,961.09
2019-03-01T05:54:12.720Z,961.07
2019-03-01T05:55:12.705Z,961.03
2019-03-01T05:56:12.617Z,961.05
2019-03-01T05:57:12.561Z,961.07
2019-03-01T05:58:16.438Z,961.10
2019-03-01T05:59:12.449Z,961.08
2019-03-01T06:00:12.437Z,961.13
2019-03-01T06:01:12.345Z,961.13
2019-03-01T06:02:12.287Z,961.09
2019-03-01T06:03:12.238Z,961.19
2019-03-01T06:04:12.185Z,961.14
2019-03-01T06:05:12.249Z,961.11
2019-03-01T06:06:12.695Z,961.08
2019-03-01T06:07:12.016Z,961.11
2019-03-01T06:08:11.963Z,961.04
2019-03-01T06:09:11.911Z,961.07
2019-03-01T06:10:11.890Z,961.09
2019-03-01T06:11:11.804Z,961.08
2019-03-01T06:12:11.752Z,961.06
2019-03-01T06:13:11.734Z,961.13
2019-03-01T06:14:11.639Z,961.04
2019-03-01T06:15:11.586Z,961.10
2019-03-01T06:16:11.532Z,961.10
2019-03-01T06:17:11.475Z,961.13
2019-03-01T06:18:11.461Z,961.11
2019-03-01T06:19:11.369Z,961.07
2019-03-01T06:20:11.319Z,961.07
2019-03-01T06:21:11.263Z,961.11
2019-03-01T06:22:11.235Z,961.12
2019-03-01T06:23:11.188Z,961.11
2019-03-01T06:24:11.100Z,961.14
2019-03-01T06:25:11.052Z,961.14
2019-03-01T06:26:10.989Z,961.11
2019-03-01T06:27:10.999Z,961.14
2019-03-01T06:28:10.915Z,961.13
2019-03-01T06:29:10.833Z,961.19
2019-03-01T06:30:10.774Z,961.20
2019-03-01T06:31:10.767Z,961.19
2019-03-01T06:32:10.667Z,961.17
2019-03-01T06:33:10.609Z,961.21
2019-03-01T06:34:10.559Z,961.21
2019-03-01T06:35:10.511Z,961.16
2019-03-01T06:36:10.488Z,961.18
2019-03-01T06:37:10.404Z,961.14
2019-03-01T06:38:10.341Z,961.15
2019-03-01T06:39:10.286Z,961.15
2019-03-01T06:40:10.234Z,961.15
2019-03-01T06:41:10.215Z,961.15
2019-03-01T06:42:10.126Z,961.15
2019-03-01T06:43:10.106Z,961.11
2019-03-01T06:44:10.020Z,961.14
2019-03-01T06:45:09.967Z,961.14
2019-03-01T06:46:09.909Z,961.16
2019-03-01T06:47:09.902Z,961.15
2019-03-01T06:48:09.808Z,961.14
2019-03-01T06:49:09.753Z,961.18
2019-03-01T06:50:09.691Z,961.15
2019-03-01T06:51:09.638Z,961.20
2019-03-01T06:52:09.625Z,961.18
2019-03-01T06:53:09.594Z,961.22
2019-03-01T06:54:09.477Z,961.17
2019-03-01T06:55:09.430Z,961.20
2019-03-01T06:56:09.366Z,961.15
2019-03-01T06:57:09.338Z,961.13
2019-03-01T06:58:09.266Z,961.13
2019-03-01T06:59:09.205Z,961.17
2019-03-01T07:00:09.153Z,961.17
2019-03-01T07:01:09.099Z,961.18
2019-03-01T07:02:09.083Z,961.19
2019-03-01T07:03:08.992Z,961.18
2019-03-01T07:04:08.932Z,961.13
2019-03-01T07:05:08.912Z,961.15
2019-03-01T07:06:08.829Z,961.12
2019-03-01T07:07:08.774Z,961.19
2019-03-01T07:08:08.723Z,961.16
2019-03-01T07:09:08.665Z,961.20
2019-03-01T07:10:08.653Z,961.19
2019-03-01T07:11:08.556Z,961.17
2019-03-01T07:12:08.502Z,961.15
2019-03-01T07:13:08.481Z,961.18
2019-03-01T07:14:08.392Z,961.15
2019-03-01T07:15:08.843Z,961.19
2019-03-01T07:16:08.314Z,961.16
2019-03-01T07:17:08.262Z,961.16
2019-03-01T07:18:08.182Z,961.14
2019-03-01T07:19:08.157Z,961.17
2019-03-01T07:20:08.740Z,961.14
2019-03-01T07:21:08.047Z,961.15
2019-03-01T07:22:07.958Z,961.15
2019-03-01T07:23:07.920Z,961.15
2019-03-01T07:24:07.912Z,961.14
2019-03-01T07:25:07.846Z,961.12
2019-03-01T07:26:07.744Z,961.11
2019-03-01T07:27:07.691Z,961.11
2019-03-01T07:28:07.639Z,961.10
2019-03-01T07:29:07.581Z,961.10
2019-03-01T07:30:07.564Z,961.09
2019-03-01T07:31:07.473Z,961.13
2019-03-01T07:32:07.419Z,961.14
2019-03-01T07:33:07.370Z,961.13
2019-03-01T07:34:07.314Z,961.14
2019-03-01T07:35:07.293Z,961.19
2019-03-01T07:36:07.203Z,961.17
2019-03-01T07:37:07.150Z,961.18
2019-03-01T07:38:07.094Z,961.15
2019-03-01T07:39:07.044Z,961.23
2019-03-01T07:40:07.027Z,961.20
2019-03-01T07:41:06.931Z,961.21
2019-03-01T07:42:06.877Z,961.19
2019-03-01T07:43:07.753Z,961.22
2019-03-01T07:44:06.773Z,961.19
2019-03-01T07:45:06.716Z,961.19
2019-03-01T07:46:06.667Z,961.24
2019-03-01T07:47:06.610Z,961.22
2019-03-01T07:48:06.593Z,961.21
2019-03-01T07:49:06.504Z,961.22
2019-03-01T07:50:06.443Z,961.26
2019-03-01T07:51:06.774Z,961.29
2019-03-01T07:52:06.341Z,961.26
2019-03-01T07:53:06.316Z,961.26
2019-03-01T07:54:06.232Z,961.23
2019-03-01T07:55:06.175Z,961.23
2019-03-01T07:56:06.128Z,961.23
2019-03-01T07:57:06.104Z,961.26
2019-03-01T07:58:06.015Z,961.25
2019-03-01T07:59:05.960Z,961.29
2019-03-01T08:00:05.906Z,961.29
2019-03-01T08:01:05.852Z,961.33
2019-03-01T08:02:05.828Z,961.29
2019-03-01T08:03:05.745Z,961.26
2019-03-01T08:04:05.688Z,961.29
2019-03-01T08:05:05.635Z,961.29
2019-03-01T08:06:05.610Z,961.27
2019-03-01T08:07:05.559Z,961.28
2019-03-01T08:08:05.508Z,961.32
2019-03-01T08:09:05.420Z,961.30
2019-03-01T08:10:05.407Z,961.32
2019-03-01T08:11:05.312Z,961.32
2019-03-01T08:12:07.439Z,961.32
2019-03-01T08:13:05.549Z,961.31
2019-03-01T08:14:05.154Z,961.35
2019-03-01T08:15:08.478Z,961.34
2019-03-01T08:16:05.041Z,961.38
2019-03-01T08:17:05.019Z,961.37
2019-03-01T08:18:08.142Z,961.39
2019-03-01T08:19:04.882Z,961.39
2019-03-01T08:20:04.825Z,961.36
2019-03-01T08:21:06.455Z,961.36
2019-03-01T08:22:04.719Z,961.39
2019-03-01T08:23:04.666Z,961.37
2019-03-01T08:24:07.715Z,961.37
2019-03-01T08:25:04.557Z,961.41
2019-03-01T08:26:04.553Z,961.41
2019-03-01T08:27:06.386Z,961.40
2019-03-01T08:28:04.395Z,961.41
2019-03-01T08:29:04.341Z,961.42
2019-03-01T08:30:06.916Z,961.42
2019-03-01T08:31:04.633Z,961.41
2019-03-01T08:32:04.221Z,961.42
2019-03-01T08:33:06.938Z,961.45
2019-03-01T08:34:04.071Z,961.39
2019-03-01T08:35:05.926Z,961.41
2019-03-01T08:36:05.789Z,961.43
2019-03-01T08:37:03.940Z,961.45
2019-03-01T08:38:03.920Z,961.44
2019-03-01T08:39:04.861Z,961.46
2019-03-01T08:40:03.752Z,961.42
2019-03-01T08:41:03.696Z,961.43
2019-03-01T08:42:03.644Z,961.45
2019-03-01T08:43:03.619Z,961.43
2019-03-01T08:44:03.537Z,961.44
2019-03-01T08:45:03.479Z,961.46
2019-03-01T08:46:05.486Z,961.47
2019-03-01T08:47:03.652Z,961.47
2019-03-01T08:48:03.321Z,961.48
2019-03-01T08:49:03.275Z,961.48
2019-03-01T08:50:03.218Z,961.48
2019-03-01T08:51:03.158Z,961.49
2019-03-01T08:52:03.136Z,961.48
2019-03-01T08:53:03.052Z,961.49
2019-03-01T08:54:03.037Z,961.52
2019-03-01T08:55:04.514Z,961.51
2019-03-01T08:56:02.895Z,961.50
2019-03-01T08:57:02.834Z,961.51
2019-03-01T08:58:06.775Z,961.52
2019-03-01T08:59:02.759Z,961.55
2019-03-01T09:00:02.700Z,961.53
2019-03-01T09:01:03.975Z,961.56
2019-03-01T09:02:02.587Z,961.56
2019-03-01T09:03:02.606Z,961.53
2019-03-01T09:04:02.491Z,961.58
2019-03-01T09:05:05.220Z,961.59
2019-03-01T09:06:02.351Z,961.58
2019-03-01T09:07:02.300Z,961.53
2019-03-01T09:08:02.245Z,961.51
2019-03-01T09:09:02.230Z,961.52
2019-03-01T09:10:02.144Z,961.53
2019-03-01T09:11:02.123Z,961.55
2019-03-01T09:12:02.034Z,961.55
2019-03-01T09:13:01.978Z,961.59
2019-03-01T09:14:01.931Z,961.58
2019-03-01T09:15:04.562Z,961.55
2019-03-01T09:16:01.852Z,961.63
2019-03-01T09:17:01.808Z,961.57
2019-03-01T09:18:01.712Z,961.55
2019-03-01T09:19:01.698Z,961.60
2019-03-01T09:20:01.605Z,961.54
2019-03-01T09:21:05.494Z,961.57
2019-03-01T09:22:01.509Z,961.54
2019-03-01T09:23:04.864Z,961.53
2019-03-01T09:24:01.426Z,961.51
2019-03-01T09:25:02.589Z,961.50
2019-03-01T09:26:01.293Z,961.48
2019-03-01T09:27:01.232Z,961.49
2019-03-01T09:28:01.184Z,961.49
2019-03-01T09:29:01.169Z,961.54
2019-03-01T09:30:03.659Z,961.53
2019-03-01T09:31:01.020Z,961.52
2019-03-01T09:32:00.978Z,961.54
2019-03-01T09:33:00.911Z,961.53
2019-03-01T09:34:00.889Z,961.54
2019-03-01T09:35:04.128Z,961.53
2019-03-01T09:36:00.797Z,961.50
2019-03-01T09:37:00.695Z,961.49
2019-03-01T09:38:00.646Z,961.52
2019-03-01T09:39:00.590Z,961.53
2019-03-01T09:40:05.487Z,961.50
2019-03-01T09:41:01.247Z,961.46
2019-03-01T09:42:04.393Z,961.44
2019-03-01T09:43:01.116Z,961.39
2019-03-01T09:44:02.878Z,961.39
2019-03-01T09:45:00.370Z,961.38
2019-03-01T09:46:00.251Z,961.39
2019-03-01T09:47:01.637Z,961.45
2019-03-01T09:48:00.110Z,961.53
2019-03-01T09:49:00.058Z,961.48
2019-03-01T09:50:01.168Z,961.55
2019-03-01T09:50:59.980Z,961.60
2019-03-01T09:51:59.921Z,961.59
2019-03-01T09:52:59.926Z,961.63
2019-03-01T09:53:59.796Z,961.68
2019-03-01T09:54:59.745Z,961.66
2019-03-01T09:56:00.160Z,961.66
2019-03-01T09:56:59.690Z,961.61
2019-03-01T09:57:59.586Z,961.65
2019-03-01T09:58:59.528Z,961.60
2019-03-01T09:59:59.475Z,961.65
2019-03-01T10:00:59.429Z,961.63
2019-03-01T10:01:59.404Z,961.65
2019-03-01T10:02:59.362Z,961.62
2019-03-01T10:03:59.267Z,961.63
2019-03-01T10:04:59.216Z,961.68
2019-03-01T10:05:59.159Z,961.64
2019-03-01T10:06:59.107Z,961.67
2019-03-01T10:07:59.086Z,961.66
2019-03-01T10:08:59.010Z,961.67
2019-03-01T10:09:58.982Z,961.66
2019-03-01T10:10:58.898Z,961.65
2019-03-01T10:11:58.844Z,961.64
2019-03-01T10:12:58.789Z,961.68
2019-03-01T10:13:58.774Z,961.68
2019-03-01T10:14:58.711Z,961.68
2019-03-01T10:15:58.635Z,961.67
2019-03-01T10:16:58.581Z,961.64
2019-03-01T10:17:58.531Z,961.66
2019-03-01T10:18:58.514Z,961.66
2019-03-01T10:19:58.424Z,961.57
2019-03-01T10:20:58.405Z,961.59
2019-03-01T10:21:58.323Z,961.61
2019-03-01T10:22:58.270Z,961.58
2019-03-01T10:23:58.216Z,961.58
2019-03-01T10:24:58.202Z,961.60
2019-03-01T10:25:58.181Z,961.56
2019-03-01T10:26:58.062Z,961.58
2019-03-01T10:27:58.008Z,961.59
2019-03-01T10:28:57.957Z,961.59
2019-03-01T10:29:57.940Z,961.59
2019-03-01T10:30:57.849Z,961.59
2019-03-01T10:31:57.809Z,961.61
2019-03-01T10:32:57.779Z,961.62
2019-03-01T10:33:57.746Z,961.67
2019-03-01T10:34:57.652Z,961.67
2019-03-01T10:35:57.592Z,961.63
2019-03-01T10:36:57.539Z,961.63
2019-03-01T10:37:57.542Z,961.65
2019-03-01T10:38:57.435Z,961.65
2019-03-01T10:39:57.383Z,961.72
2019-03-01T10:40:57.345Z,961.71
2019-03-01T10:41:57.279Z,961.76
2019-03-01T10:42:57.267Z,961.78
2019-03-01T10:43:57.175Z,961.84
2019-03-01T10:44:57.128Z,961.77
2019-03-01T10:45:57.075Z,961.78
2019-03-01T10:46:57.057Z,961.74
2019-03-01T10:47:56.968Z,961.74
2019-03-01T10:48:56.923Z,961.74
2019-03-01T10:49:56.870Z,961.71
2019-03-01T10:50:56.825Z,961.73
2019-03-01T10:51:56.809Z,961.82
2019-03-01T10:52:56.714Z,961.73
2019-03-01T10:53:56.662Z,961.70
2019-03-01T10:54:56.612Z,961.66
2019-03-01T10:55:56.564Z,961.65
2019-03-01T10:56:56.558Z,961.66
2019-03-01T10:57:56.459Z,961.65
2019-03-01T10:58:58.385Z,961.71
2019-03-01T10:59:56.357Z,961.71
2019-03-01T11:00:56.304Z,961.70
2019-03-01T11:01:56.287Z,961.69
2019-03-01T11:02:56.203Z,961.67
2019-03-01T11:03:56.177Z,961.70
2019-03-01T11:04:56.113Z,961.67
2019-03-01T11:05:56.056Z,961.64
2019-03-01T11:06:56.071Z,961.61
2019-03-01T11:07:55.950Z,961.64
2019-03-01T11:08:55.899Z,961.61
2019-03-01T11:09:55.879Z,961.71
2019-03-01T11:10:55.796Z,961.69
2019-03-01T11:11:55.750Z,961.64
2019-03-01T11:12:55.698Z,961.62
2019-03-01T11:13:55.654Z,961.66
2019-03-01T11:14:55.637Z,961.66
2019-03-01T11:15:55.547Z,961.70
2019-03-01T11:16:55.493Z,961.75
2019-03-01T11:17:55.447Z,961.72
2019-03-01T11:18:55.396Z,961.71
2019-03-01T11:19:55.378Z,961.69
2019-03-01T11:20:55.293Z,961.68
2019-03-01T11:21:55.242Z,961.72
2019-03-01T11:22:55.200Z,961.75
2019-03-01T11:23:55.180Z,961.72
2019-03-01T11:24:55.088Z,961.73
2019-03-01T11:25:55.043Z,961.74
2019-03-01T11:26:54.991Z,961.80
2019-03-01T11:27:54.941Z,961.81
2019-03-01T11:28:54.921Z,961.82
2019-03-01T11:29:54.869Z,961.82
2019-03-01T11:30:54.819Z,961.87
2019-03-01T11:31:54.734Z,961.87
2019-03-01T11:32:54.688Z,961.89
2019-03-01T11:33:54.630Z,961.89
2019-03-01T11:34:54.583Z,961.91
2019-03-01T11:35:54.574Z,961.85
2019-03-01T11:36:54.481Z,961.87
2019-03-01T11:37:54.432Z,961.87
2019-03-01T11:38:54.382Z,961.89
2019-03-01T11:39:54.334Z,961.89
2019-03-01T11:40:55.870Z,961.89
2019-03-01T11:41:54.227Z,961.87
2019-03-01T11:42:54.178Z,961.89
2019-03-01T11:43:54.120Z,961.87
2019-03-01T11:44:54.067Z,961.86
2019-03-01T11:45:54.053Z,961.90
2019-03-01T11:46:53.971Z,961.88
2019-03-01T11:47:53.917Z,961.89
2019-03-01T11:48:53.893Z,961.89
2019-03-01T11:49:53.810Z,961.88
2019-03-01T11:50:53.764Z,961.90
2019-03-01T11:51:53.753Z,961.87
2019-03-01T11:52:53.656Z,961.88
2019-03-01T11:53:53.790Z,961.91
2019-03-01T11:54:53.560Z,961.89
2019-03-01T11:55:53.504Z,961.87
2019-03-01T11:56:53.818Z,961.89
2019-03-01T11:57:53.406Z,961.88
2019-03-01T11:58:53.353Z,961.89
2019-03-01T11:59:53.304Z,961.85
2019-03-01T12:00:53.269Z,961.87
2019-03-01T12:01:53.236Z,961.88
2019-03-01T12:02:53.143Z,961.90
2019-03-01T12:03:53.098Z,961.90
2019-03-01T12:04:53.044Z,961.94
2019-03-01T12:05:52.994Z,961.92
2019-03-01T12:06:52.973Z,961.89
2019-03-01T12:07:52.944Z,961.90
2019-03-01T12:08:52.886Z,961.93
2019-03-01T12:09:52.788Z,961.95
2019-03-01T12:10:52.745Z,961.95
2019-03-01T12:11:52.734Z,961.95
2019-03-01T12:12:52.636Z,961.96
2019-03-01T12:13:52.609Z,961.94
2019-03-01T12:14:52.530Z,961.98
2019-03-01T12:15:52.486Z,962.00
2019-03-01T12:16:52.429Z,961.96
2019-03-01T12:17:52.375Z,962.01
2019-03-01T12:18:52.370Z,961.96
2019-03-01T12:19:52.279Z,961.98
2019-03-01T12:20:52.221Z,961.97
2019-03-01T12:21:52.170Z,961.97
2019-03-01T12:22:52.119Z,962.00
2019-03-01T12:23:52.099Z,962.01
2019-03-01T12:24:52.012Z,962.00
2019-03-01T12:25:51.961Z,961.99
2019-03-01T12:26:51.913Z,961.98
2019-03-01T12:27:51.859Z,961.97